createdAt,value
2019-03-06T00:02:21.128Z,99818.85
2019-03-06T00:04:50.011Z,99824.20
2019-03-06T00:07:18.849Z,99819.52
2019-03-06T00:09:47.982Z,99819.67
2019-03-06T00:12:16.937Z,99824.56
2019-03-06T00:14:45.964Z,99823.77
2019-03-06T00:17:14.947Z,99824.18
2019-03-06T00:19:44.072Z,99828.13
2019-03-06T00:22:32.200Z,99820.83
2019-03-06T00:25:01.059Z,99815.31
2019-03-06T00:27:30.028Z,99817.02
2019-03-06T00:29:59.161Z,99813.06
2019-03-06T00:32:27.988Z,99818.33
2019-03-06T00:34:58.626Z,99814.91
2019-03-06T00:37:26.652Z,99819.27
2019-03-06T00:40:05.131Z,99810.33
2019-03-06T00:42:53.382Z,99812.97
2019-03-06T00:45:22.383Z,99809.02
2019-03-06T00:47:51.392Z,99812.63
2019-03-06T00:50:20.394Z,99802.72
2019-03-06T00:52:49.387Z,99802.23
2019-03-06T00:55:18.542Z,99813.39
2019-03-06T00:57:47.528Z,99807.33
2019-03-06T01:00:17.576Z,99806.47
2019-03-06T01:02:46.799Z,99804.77
2019-03-06T01:05:15.794Z,99800.50
2019-03-06T01:07:44.819Z,99802.59
2019-03-06T01:10:13.852Z,99804.05
2019-03-06T01:12:42.824Z,99804.91
2019-03-06T01:15:11.881Z,99803.35
2019-03-06T01:17:40.822Z,99807.30
2019-03-06T01:20:09.887Z,99811.33
2019-03-06T01:22:38.895Z,99814.09
2019-03-06T01:25:07.976Z,99815.00
2019-03-06T01:27:36.852Z,99812.44
2019-03-06T01:30:06.633Z,99808.48
2019-03-06T01:32:36.015Z,99815.48
2019-03-06T01:35:22.284Z,99808.48
2019-03-06T01:38:12.804Z,99805.92
2019-03-06T01:40:53.510Z,99804.67
2019-03-06T01:43:28.034Z,99800.48
2019-03-06T01:45:57.062Z,99798.30
2019-03-06T01:48:45.088Z,99801.34
2019-03-06T01:51:14.109Z,99801.34
2019-03-06T01:53:43.135Z,99797.98
2019-03-06T01:56:12.033Z,99793.73
2019-03-06T01:58:41.127Z,99792.66
2019-03-06T02:01:10.157Z,99784.09
2019-03-06T02:03:39.185Z,99782.33
2019-03-06T04:15:09.614Z,99665.41
2019-03-06T04:17:38.841Z,99663.53
2019-03-06T04:20:09.929Z,99662.08
2019-03-06T04:22:58.036Z,99661.55
2019-03-06T04:25:26.886Z,99660.95
2019-03-06T04:27:55.679Z,99653.05
2019-03-06T04:30:24.794Z,99654.98
2019-03-06T04:32:53.709Z,99641.06
2019-03-06T04:35:22.570Z,99633.99
2019-03-06T04:38:10.482Z,99635.72
2019-03-06T04:40:39.506Z,99627.03
2019-03-06T04:43:08.632Z,99632.45
2019-03-06T04:45:37.488Z,99633.32
2019-03-06T04:48:06.412Z,99635.87
2019-03-06T04:50:35.487Z,99630.23
2019-03-06T04:53:04.501Z,99639.45
2019-03-06T04:55:33.341Z,99633.24
2019-03-06T04:58:02.262Z,99624.81
2019-03-06T05:00:31.246Z,99628.47
2019-03-06T05:03:00.153Z,99622.56
2019-03-06T05:05:29.073Z,99624.22
2019-03-06T05:07:57.870Z,99624.15
2019-03-06T05:10:26.763Z,99621.74
2019-03-06T05:12:55.966Z,99617.15
2019-03-06T05:15:24.917Z,99611.87
2019-03-06T05:18:12.925Z,99607.93
2019-03-06T05:20:41.796Z,99611.81
2019-03-06T05:23:10.685Z,99613.69
2019-03-06T05:25:39.681Z,99604.47
2019-03-06T05:28:09.722Z,99608.42
2019-03-06T05:30:38.759Z,99601.34
2019-03-06T05:33:08.401Z,99587.27
2019-03-06T05:36:04.351Z,99591.59
2019-03-06T05:38:40.807Z,99592.77
2019-03-06T05:41:09.814Z,99585.64
2019-03-06T05:43:38.942Z,99583.92
2019-03-06T05:46:07.819Z,99589.97
2019-03-06T05:48:36.743Z,99596.03
2019-03-06T05:51:05.745Z,99582.45
2019-03-06T05:53:34.869Z,99579.28
2019-03-06T05:56:03.904Z,99565.58
2019-03-06T05:58:35.854Z,99560.39
2019-03-06T06:01:04.863Z,99564.19
2019-03-06T06:03:33.893Z,99565.42
2019-03-06T06:06:03.485Z,99563.62
2019-03-06T06:08:32.526Z,99559.52
2019-03-06T06:11:01.465Z,99566.59
2019-03-06T06:13:31.080Z,99558.30
2019-03-06T06:16:00.535Z,99549.91
2019-03-06T06:18:29.753Z,99558.22
2019-03-06T06:21:17.648Z,99556.19
2019-03-06T06:23:53.436Z,99542.94
2019-03-06T06:26:22.546Z,99535.41
2019-03-06T06:28:51.604Z,99534.80
2019-03-06T06:31:20.619Z,99534.19
2019-03-06T06:33:49.648Z,99528.05
2019-03-06T06:36:18.584Z,99524.80
2019-03-06T06:38:47.663Z,99516.97
2019-03-06T06:41:16.781Z,99512.53
2019-03-06T06:43:45.699Z,99513.28
2019-03-06T06:46:14.607Z,99506.83
2019-03-06T06:48:43.788Z,99502.67
2019-03-06T06:51:54.163Z,99505.27
2019-03-06T06:54:37.111Z,99493.47
2019-03-06T06:57:45.940Z,99489.95
2019-03-06T07:00:26.487Z,99482.66
2019-03-06T07:03:38.554Z,99483.98
2019-03-06T07:06:18.758Z,99471.61
2019-03-06T07:09:14.764Z,99468.73
2019-03-06T07:12:08.264Z,99466.32
2019-03-06T07:14:54.575Z,99461.14
2019-03-06T07:17:29.695Z,99465.19
2019-03-06T07:20:32.205Z,99471.12
2019-03-06T07:23:15.494Z,99466.91
2019-03-06T07:26:21.973Z,99461.27
2019-03-06T07:29:09.929Z,99456.19
2019-03-06T07:31:51.737Z,99454.88
2019-03-06T07:34:42.378Z,99448.10
2019-03-06T07:37:15.579Z,99450.02
2019-03-06T07:40:00.685Z,99446.61
2019-03-06T07:42:52.002Z,99445.53
2019-03-06T07:45:59.992Z,99447.59
2019-03-06T07:48:51.191Z,99450.14
2019-03-06T07:51:41.327Z,99439.13
2019-03-06T07:54:27.790Z,99442.73
2019-03-06T07:57:15.698Z,99437.74
2019-03-06T07:59:44.852Z,99445.98
2019-03-06T08:02:17.791Z,99448.45
2019-03-06T08:04:53.729Z,99443.91
2019-03-06T08:07:22.822Z,99440.81
2019-03-06T08:09:52.283Z,99450.82
2019-03-06T08:12:38.305Z,99448.47
2019-03-06T08:15:35.407Z,99440.73
2019-03-06T08:18:19.088Z,99432.36
2019-03-06T08:21:05.329Z,99434.91
2019-03-06T08:23:51.891Z,99431.14
2019-03-06T08:26:21.037Z,99425.12
2019-03-06T08:28:49.848Z,99427.59
2019-03-06T08:31:28.911Z,99427.95
2019-03-06T08:33:57.930Z,99421.81
2019-03-06T08:36:27.173Z,99417.03
2019-03-06T08:38:56.233Z,99409.47
2019-03-06T08:41:25.108Z,99414.75
2019-03-06T08:43:53.983Z,99411.16
2019-03-06T08:46:42.107Z,99405.88
2019-03-06T08:49:30.301Z,99406.20
2019-03-06T08:52:20.923Z,99402.70
2019-03-06T08:55:07.914Z,99397.73
2019-03-06T08:57:58.511Z,99391.31
2019-03-06T09:00:55.250Z,99394.31
2019-03-06T09:03:46.537Z,99390.72
2019-03-06T09:06:33.798Z,99385.34
2019-03-06T09:09:20.322Z,99380.98
2019-03-06T09:12:08.257Z,99383.27
2019-03-06T09:14:56.132Z,99379.20
2019-03-06T09:17:44.147Z,99364.23
2019-03-06T09:20:41.106Z,99358.77
2019-03-06T09:23:27.736Z,99368.10
2019-03-06T09:26:15.640Z,99351.89
2019-03-06T09:29:06.514Z,99347.25
2019-03-06T09:32:12.400Z,99336.81
2019-03-06T09:35:06.248Z,99342.09
2019-03-06T09:37:52.910Z,99332.56
2019-03-06T09:40:28.457Z,99327.86
2019-03-06T09:43:14.860Z,99327.77
2019-03-06T09:45:58.840Z,99312.19
2019-03-06T09:48:42.603Z,99305.12
2019-03-06T09:51:24.505Z,99308.44
2019-03-06T09:54:10.814Z,99304.73
2019-03-06T09:56:58.929Z,99307.66
2019-03-06T09:59:35.577Z,99288.02
2019-03-06T10:02:26.436Z,99288.97
2019-03-06T10:05:06.584Z,99281.99
2019-03-06T10:07:54.571Z,99274.33
2019-03-06T10:10:46.298Z,99262.84
2019-03-06T10:13:19.517Z,99268.47
2019-03-06T10:16:08.253Z,99269.91
2019-03-06T10:18:47.365Z,99261.36
2019-03-06T10:21:16.251Z,99266.67
2019-03-06T10:23:45.467Z,99261.55
2019-03-06T10:26:14.394Z,99265.98
2019-03-06T10:28:43.243Z,99260.13
2019-03-06T10:31:12.597Z,99255.84
2019-03-06T10:33:41.422Z,99236.11
2019-03-06T10:36:10.832Z,99233.63
2019-03-06T10:38:39.870Z,99222.13
2019-03-06T10:41:08.856Z,99223.24
2019-03-06T10:43:37.839Z,99204.36
2019-03-06T10:46:08.448Z,99206.05
2019-03-06T10:48:37.337Z,99204.98
2019-03-06T10:51:06.533Z,99203.35
2019-03-06T10:53:41.579Z,99187.92
2019-03-06T10:56:07.383Z,99193.11
2019-03-06T10:58:36.575Z,99186.13
2019-03-06T11:01:05.922Z,99191.78
2019-03-06T11:03:40.891Z,99187.61
2019-03-06T11:06:10.328Z,99183.48
2019-03-06T11:08:39.433Z,99174.38
2019-03-06T11:11:08.856Z,99161.69
2019-03-06T11:13:38.901Z,99168.13
2019-03-06T11:16:08.425Z,99150.60
2019-03-06T11:18:37.405Z,99149.78
2019-03-06T11:21:06.736Z,99140.77
2019-03-06T11:23:35.772Z,99141.02
2019-03-06T11:26:05.199Z,99129.50
2019-03-06T11:28:34.098Z,99116.52
2019-03-06T11:31:03.055Z,99107.16
2019-03-06T11:33:31.935Z,99100.00
2019-03-06T11:36:00.808Z,99100.21
2019-03-06T11:38:50.394Z,99107.47
2019-03-06T11:41:19.269Z,99109.05
2019-03-06T11:43:48.060Z,99104.18
2019-03-06T11:46:17.067Z,99110.19
2019-03-06T11:48:46.109Z,99095.91
2019-03-06T11:51:15.091Z,99088.25
2019-03-06T11:53:44.092Z,99083.81
2019-03-06T11:56:13.112Z,99070.34
2019-03-06T11:58:43.146Z,99067.77
2019-03-06T12:01:16.042Z,99064.89
2019-03-06T12:03:45.124Z,99063.95
2019-03-06T12:06:14.097Z,99057.22
2019-03-06T12:08:45.913Z,99057.58
2019-03-06T12:11:13.693Z,99052.94
2019-03-06T12:13:42.619Z,99032.44
2019-03-06T12:16:12.001Z,99040.77
2019-03-06T12:18:40.912Z,99036.30
2019-03-06T12:21:10.213Z,99018.50
2019-03-06T12:23:39.594Z,99019.48
2019-03-06T12:26:08.501Z,99007.91
2019-03-06T12:28:37.281Z,99003.19
2019-03-06T12:31:07.565Z,99000.70
2019-03-06T12:33:36.408Z,98997.53
2019-03-06T12:36:07.028Z,98998.16
2019-03-06T12:38:36.042Z,98999.59
2019-03-06T12:41:05.370Z,99004.90
2019-03-06T12:43:34.464Z,99000.92
2019-03-06T12:46:24.315Z,98993.45
2019-03-06T12:49:19.279Z,98991.27
2019-03-06T12:51:54.478Z,98983.54
2019-03-06T12:54:18.909Z,98972.14
2019-03-06T12:56:47.916Z,98969.20
2019-03-06T12:59:16.911Z,98970.28
2019-03-06T13:01:46.144Z,98961.98
2019-03-06T13:04:15.037Z,98948.34
2019-03-06T13:06:44.172Z,98941.09
2019-03-06T13:09:19.924Z,98937.70
2019-03-06T13:11:48.860Z,98939.14
2019-03-06T13:14:17.850Z,98931.74
2019-03-06T13:16:46.890Z,98928.98
2019-03-06T13:19:15.901Z,98915.19
2019-03-06T13:21:44.941Z,98916.74
2019-03-06T13:24:14.315Z,98919.97
2019-03-06T13:26:43.247Z,98916.41
2019-03-06T13:29:12.263Z,98897.09
2019-03-06T13:31:41.815Z,98896.63
2019-03-06T13:34:32.036Z,98892.61
2019-03-06T13:37:01.067Z,98891.90
2019-03-06T13:39:30.117Z,98890.14
2019-03-06T13:41:59.143Z,98869.70
2019-03-06T13:44:28.056Z,98866.42
2019-03-06T13:46:57.105Z,98866.42
2019-03-06T13:49:26.117Z,98874.24
2019-03-06T13:51:55.060Z,98888.65
2019-03-06T13:54:24.062Z,98865.56
2019-03-06T13:56:53.008Z,98870.63
2019-03-06T13:59:21.769Z,98873.39
2019-03-06T14:01:50.748Z,98872.30
2019-03-06T14:04:19.749Z,98850.19
2019-03-06T14:06:48.738Z,98839.20
2019-03-06T14:09:17.700Z,98837.30
2019-03-06T14:11:46.807Z,98843.45
2019-03-06T14:14:15.680Z,98839.43
2019-03-06T14:16:44.827Z,98831.26
2019-03-06T14:19:13.865Z,98824.16
2019-03-06T14:21:42.749Z,98825.72
2019-03-06T14:24:11.620Z,98821.86
2019-03-06T14:26:40.909Z,98812.83
2019-03-06T14:29:10.945Z,98813.22
2019-03-06T14:31:39.881Z,98815.98
2019-03-06T14:34:08.892Z,98812.83
2019-03-06T14:36:38.035Z,98812.25
2019-03-06T14:39:26.994Z,98814.03
2019-03-06T14:41:56.024Z,98804.99
2019-03-06T14:44:24.856Z,98805.22
2019-03-06T14:46:53.766Z,98798.84
2019-03-06T14:49:22.771Z,98794.41
2019-03-06T14:51:51.876Z,98794.25
2019-03-06T14:54:20.812Z,98789.80
2019-03-06T14:56:49.890Z,98782.72
2019-03-06T14:59:18.842Z,98778.12
2019-03-06T15:01:47.826Z,98775.25
2019-03-06T15:04:16.773Z,98762.75
2019-03-06T15:06:45.861Z,98761.54
2019-03-06T15:09:26.016Z,98757.06
2019-03-06T15:11:54.804Z,98749.98
2019-03-06T15:14:23.887Z,98736.98
2019-03-06T15:16:52.822Z,98739.98
2019-03-06T15:19:22.027Z,98742.50
2019-03-06T15:21:51.101Z,98737.33
2019-03-06T15:24:19.966Z,98736.70
2019-03-06T15:26:48.874Z,98733.12
2019-03-06T15:29:17.878Z,98724.79
2019-03-06T15:32:06.110Z,98728.99
2019-03-06T15:34:35.089Z,98732.96
2019-03-06T15:37:03.987Z,98729.38
2019-03-06T15:39:42.773Z,98723.35
2019-03-06T15:42:07.805Z,98717.59
2019-03-06T15:44:37.010Z,98720.70
2019-03-06T15:47:06.250Z,98704.47
2019-03-06T15:49:35.194Z,98689.91
2019-03-06T15:52:04.067Z,98673.17
2019-03-06T15:54:33.079Z,98676.41
2019-03-06T15:57:02.294Z,98685.94
2019-03-06T15:59:32.795Z,98677.88
2019-03-06T16:02:01.774Z,98680.88
2019-03-06T16:04:30.803Z,98682.13
2019-03-06T16:06:59.701Z,98679.35
2019-03-06T16:09:28.666Z,98685.49
2019-03-06T16:11:58.095Z,98691.14
2019-03-06T16:14:46.331Z,98687.55
2019-03-06T16:17:15.215Z,98677.19
2019-03-06T16:19:44.122Z,98690.31
2019-03-06T16:22:13.430Z,98691.52
2019-03-06T16:24:42.682Z,98686.96
2019-03-06T16:27:11.504Z,98687.31
2019-03-06T16:29:40.498Z,98687.95
2019-03-06T16:32:09.370Z,98687.84
2019-03-06T16:34:38.298Z,98688.31
2019-03-06T16:37:07.495Z,98693.95
2019-03-06T16:39:55.567Z,98701.20
2019-03-06T16:42:24.517Z,98692.52
2019-03-06T16:44:53.545Z,98691.94
2019-03-06T16:47:22.786Z,98687.95
2019-03-06T16:49:53.685Z,98694.20
2019-03-06T16:52:22.585Z,98698.37
2019-03-06T16:54:51.548Z,98688.55
2019-03-06T16:57:20.710Z,98681.55
2019-03-06T16:59:49.614Z,98681.55
2019-03-06T17:02:18.670Z,98682.48
2019-03-06T17:04:47.555Z,98692.73
2019-03-06T17:07:16.448Z,98691.41
2019-03-06T17:10:04.737Z,98696.70
2019-03-06T17:12:33.740Z,98688.99
2019-03-06T17:15:02.804Z,98685.38
2019-03-06T17:17:31.759Z,98691.99
2019-03-06T17:20:00.795Z,98685.99
2019-03-06T17:22:29.733Z,98673.58
2019-03-06T17:24:58.795Z,98662.16
2019-03-06T17:27:27.756Z,98660.10
2019-03-06T17:29:56.687Z,98660.69
2019-03-06T17:32:25.477Z,98664.91
2019-03-06T17:34:54.496Z,98663.23
2019-03-06T17:37:23.607Z,98655.99
2019-03-06T17:39:52.510Z,98652.87
2019-03-06T17:42:21.372Z,98648.17
2019-03-06T17:44:50.382Z,98649.49
2019-03-06T17:47:19.348Z,98652.26
2019-03-06T17:49:48.530Z,98646.61
2019-03-06T17:52:17.554Z,98642.77
2019-03-06T17:54:46.944Z,98640.23
2019-03-06T17:57:15.795Z,98632.76
2019-03-06T17:59:44.581Z,98631.20
2019-03-06T18:02:13.660Z,98628.56
2019-03-06T18:04:42.698Z,98628.09
2019-03-06T18:07:11.926Z,98619.41
2019-03-06T18:09:40.976Z,98620.00
2019-03-06T18:12:09.957Z,98617.00
2019-03-06T18:14:38.976Z,98616.27
2019-03-06T18:17:08.032Z,98612.53
2019-03-06T18:19:36.991Z,98605.09
2019-03-06T18:22:06.053Z,98610.51
2019-03-06T18:24:34.963Z,98607.48
2019-03-06T18:27:04.029Z,98603.63
2019-03-06T18:29:33.096Z,98597.28
2019-03-06T18:32:02.067Z,98597.02
2019-03-06T18:34:30.982Z,98594.13
2019-03-06T18:37:00.089Z,98589.42
2019-03-06T18:39:29.094Z,98587.41
2019-03-06T18:41:58.029Z,98580.79
2019-03-06T18:44:27.148Z,98580.41
2019-03-06T18:46:56.196Z,98581.49
2019-03-06T18:49:25.030Z,98579.82
2019-03-06T18:51:53.845Z,98577.30
2019-03-06T18:54:22.961Z,98583.17
2019-03-06T18:56:52.188Z,98581.38
2019-03-06T18:59:21.146Z,98568.27
2019-03-06T19:01:50.216Z,98573.91
2019-03-06T19:04:19.184Z,98570.53
2019-03-06T19:06:48.457Z,98553.95
2019-03-06T19:09:17.286Z,98568.50
2019-03-06T19:11:46.819Z,98569.09
2019-03-06T19:14:15.951Z,98568.23
2019-03-06T19:16:44.837Z,98559.48
2019-03-06T19:19:13.755Z,98550.22
2019-03-06T19:21:42.960Z,98553.22
2019-03-06T19:24:11.798Z,98552.98
2019-03-06T19:26:41.403Z,98555.75
2019-03-06T19:29:11.322Z,98543.34
2019-03-06T19:31:40.365Z,98543.46
2019-03-06T19:34:09.407Z,98546.11
2019-03-06T19:36:38.443Z,98548.75
2019-03-06T19:39:07.377Z,98543.46
2019-03-06T19:41:36.783Z,98542.38
2019-03-06T19:44:05.804Z,98541.56
2019-03-06T19:46:34.838Z,98538.06
2019-03-06T19:49:03.976Z,98539.38
2019-03-06T19:51:32.963Z,98537.20
2019-03-06T19:54:01.927Z,98534.20
2019-03-06T19:56:31.455Z,98529.39
2019-03-06T19:59:00.486Z,98526.39
2019-03-06T20:01:29.624Z,98519.31
2019-03-06T20:03:58.606Z,98515.58
2019-03-06T20:06:27.513Z,98512.94
2019-03-06T20:08:56.616Z,98502.47
2019-03-06T20:11:25.477Z,98498.98
2019-03-06T20:13:54.354Z,98500.30
2019-03-06T20:16:23.752Z,98499.45
2019-03-06T20:18:52.586Z,98498.74
2019-03-06T20:21:21.519Z,98501.39
2019-03-06T20:23:50.658Z,98496.69
2019-03-06T20:26:19.612Z,98497.54
2019-03-06T20:28:48.654Z,98489.34
2019-03-06T20:31:17.664Z,98488.52
2019-03-06T20:33:46.576Z,98482.84
2019-03-06T20:36:15.462Z,98486.34
2019-03-06T20:38:44.500Z,98493.42
2019-03-06T20:41:13.397Z,98480.83
2019-03-06T20:43:42.868Z,98478.53
2019-03-06T20:46:11.722Z,98477.68
2019-03-06T20:48:40.656Z,98475.53
2019-03-06T20:51:28.673Z,98469.05
2019-03-06T20:53:57.723Z,98467.34
2019-03-06T20:56:26.590Z,98472.28
2019-03-06T20:58:57.711Z,98474.57
2019-03-06T21:01:26.291Z,98469.63
2019-03-06T21:03:55.330Z,98472.28
2019-03-06T21:06:33.029Z,98467.95
2019-03-06T21:08:55.090Z,98465.44
2019-03-06T21:11:23.914Z,98463.61
2019-03-06T21:13:52.934Z,98457.97
2019-03-06T21:16:21.926Z,98454.00
2019-03-06T21:18:50.904Z,98449.69
2019-03-06T21:21:19.894Z,98450.04
2019-03-06T21:23:48.932Z,98441.25
2019-03-06T21:26:17.912Z,98435.61
2019-03-06T21:28:46.971Z,98436.09
2019-03-06T21:31:16.269Z,98430.80
2019-03-06T21:33:45.231Z,98428.03
2019-03-06T21:36:14.000Z,98439.46
2019-03-06T21:38:42.900Z,98439.81
2019-03-06T21:41:11.994Z,98437.77
2019-03-06T21:43:41.065Z,98440.91
2019-03-06T21:46:10.013Z,98434.30
2019-03-06T21:48:38.935Z,98439.94
2019-03-06T21:51:07.814Z,98435.97
2019-03-06T21:53:38.979Z,98435.62
2019-03-06T21:56:07.402Z,98438.50
2019-03-06T21:58:36.308Z,98438.50
2019-03-06T22:01:07.054Z,98437.77
2019-03-06T22:03:36.157Z,98440.41
2019-03-06T22:06:05.117Z,98433.92
2019-03-06T22:08:34.053Z,98430.08
2019-03-06T22:11:02.924Z,98436.09
2019-03-06T22:13:31.956Z,98436.22
2019-03-06T22:16:00.950Z,98431.86
2019-03-06T22:18:29.983Z,98430.55
2019-03-06T22:20:58.981Z,98422.14
2019-03-06T22:23:27.902Z,98427.55
2019-03-06T22:25:56.908Z,98421.06
2019-03-06T22:28:25.915Z,98415.30
2019-03-06T22:30:54.920Z,98419.86
2019-03-06T22:33:25.268Z,98421.18
2019-03-06T22:35:54.437Z,98420.33
2019-03-06T22:38:23.400Z,98422.27
2019-03-06T22:40:52.327Z,98417.80
2019-03-06T22:43:21.376Z,98416.13
2019-03-06T22:45:50.204Z,98405.55
2019-03-06T22:48:19.209Z,98402.56
2019-03-06T22:50:48.004Z,98397.75
2019-03-06T22:53:16.998Z,98400.04
2019-03-06T22:55:45.785Z,98403.62
2019-03-06T22:58:14.691Z,98400.51
2019-03-06T23:01:19.741Z,98394.02
2019-03-06T23:03:48.609Z,98395.34
2019-03-06T23:06:17.511Z,98385.73
2019-03-06T23:08:46.455Z,98384.97
2019-03-06T23:11:15.446Z,98380.04
2019-03-06T23:13:44.424Z,98376.58
2019-03-06T23:16:13.509Z,98375.38
2019-03-06T23:18:42.593Z,98379.69
2019-03-06T23:21:11.509Z,98367.06
2019-03-06T23:23:40.473Z,98372.34
2019-03-06T23:26:09.497Z,98368.88
2019-03-06T23:28:38.568Z,98362.75
2019-03-06T23:31:07.629Z,98360.10
2019-03-06T23:33:36.602Z,98353.62
2019-03-06T23:36:05.569Z,98357.46
2019-03-06T23:38:34.651Z,98347.36
2019-03-06T23:41:03.659Z,98349.19
2019-03-06T23:43:32.582Z,98343.90
2019-03-06T23:46:20.634Z,98338.73
2019-03-06T23:48:50.028Z,98337.41
2019-03-06T23:51:24.317Z,98338.34
2019-03-06T23:53:54.720Z,98333.92
2019-03-06T23:56:22.720Z,98328.63
2019-03-06T23:58:51.704Z,98323.59
